Time;durP1;ratioP1;P1;durP2;ratioP2;P2;SDS_P1;SDS_P2;PMS_P1;PMS_P2;Temp;Humidity;BMP_temperature;BMP_pressure;BME280_temperature;BME280_humidity;BME280_pressure;Samples;Min_cycle;Max_cycle;Signal;HPM_P1;HPM_P2
2022/07/07 00:00:29;;;;;;;3.30;2.97;;;;;;;;;;5075313;28;20460;-69
2022/07/07 00:02:59;;;;;;;4.83;2.60;;;;;;;;;;5082657;28;20522;-69
2022/07/07 00:05:27;;;;;;;3.40;2.23;;;;;;;;;;5083372;28;20464;-69
2022/07/07 00:07:54;;;;;;;3.50;2.43;;;;;;;;;;5081573;28;20471;-69
2022/07/07 00:10:22;;;;;;;3.53;2.30;;;;;;;;;;5092745;28;20471;-69
2022/07/07 00:12:50;;;;;;;4.00;2.63;;;;;;;;;;5093301;28;20464;-69
2022/07/07 00:15:21;;;;;;;4.13;2.50;;;;;;;;;;5078597;28;20453;-69
2022/07/07 00:17:48;;;;;;;5.63;2.40;;;;;;;;;;5085315;28;20487;-69
2022/07/07 00:20:18;;;;;;;3.93;2.60;;;;;;;;;;5084788;28;20532;-69
2022/07/07 00:22:45;;;;;;;5.87;2.03;;;;;;;;;;5093658;28;21017;-69
2022/07/07 00:25:13;;;;;;;4.00;2.17;;;;;;;;;;5077452;28;20449;-68
2022/07/07 00:27:42;;;;;;;3.30;2.40;;;;;;;;;;5095712;28;20471;-70
2022/07/07 00:30:10;;;;;;;2.70;1.80;;;;;;;;;;5083390;28;20475;-70
2022/07/07 00:32:38;;;;;;;2.90;2.00;;;;;;;;;;5076688;28;21124;-70
2022/07/07 00:35:06;;;;;;;3.00;2.00;;;;;;;;;;5090552;28;20569;-70
2022/07/07 00:37:35;;;;;;;3.27;2.00;;;;;;;;;;5088606;28;20457;-70
2022/07/07 00:40:03;;;;;;;2.73;1.70;;;;;;;;;;5082293;28;20447;-70
2022/07/07 00:42:31;;;;;;;3.70;2.07;;;;;;;;;;5088569;28;20770;-70
2022/07/07 00:44:59;;;;;;;2.87;2.00;;;;;;;;;;5081162;28;20485;-70
2022/07/07 00:47:27;;;;;;;2.70;1.97;;;;;;;;;;5088268;28;20463;-69
2022/07/07 00:49:58;;;;;;;5.33;3.10;;;;;;;;;;5078057;28;20448;-70
2022/07/07 00:52:26;;;;;;;3.27;2.00;;;;;;;;;;5085788;28;20799;-70
2022/07/07 00:54:56;;;;;;;2.30;1.93;;;;;;;;;;5076781;28;20460;-70
2022/07/07 00:57:24;;;;;;;2.70;1.77;;;;;;;;;;5090021;28;20455;-69
2022/07/07 00:59:52;;;;;;;4.50;2.07;;;;;;;;;;5079415;28;20471;-70
2022/07/07 01:02:20;;;;;;;2.73;1.80;;;;;;;;;;5096937;28;20544;-70
2022/07/07 01:04:48;;;;;;;3.20;1.83;;;;;;;;;;5087790;28;20449;-69
2022/07/07 01:07:17;;;;;;;2.50;1.80;;;;;;;;;;5077058;28;20455;-69
2022/07/07 01:09:45;;;;;;;3.60;1.83;;;;;;;;;;5077622;28;20517;-70
2022/07/07 01:12:14;;;;;;;2.77;1.50;;;;;;;;;;5076580;28;20479;-70
2022/07/07 01:14:42;;;;;;;4.23;1.63;;;;;;;;;;5085849;28;20463;-70
2022/07/07 01:17:10;;;;;;;2.43;1.67;;;;;;;;;;5076800;28;20465;-70
2022/07/07 01:19:38;;;;;;;2.70;1.47;;;;;;;;;;5077679;28;20456;-70
2022/07/07 01:22:08;;;;;;;2.40;1.87;;;;;;;;;;5087985;28;20615;-70
2022/07/07 01:24:38;;;;;;;5.07;1.60;;;;;;;;;;5088717;28;20448;-70
2022/07/07 01:27:06;;;;;;;2.00;1.40;;;;;;;;;;5089018;28;20464;-70
2022/07/07 01:29:37;;;;;;;2.63;1.67;;;;;;;;;;5080977;28;20459;-69
2022/07/07 01:32:07;;;;;;;2.40;1.40;;;;;;;;;;5095588;28;20459;-69
2022/07/07 01:34:35;;;;;;;2.00;1.30;;;;;;;;;;5096086;28;20580;-69
2022/07/07 01:37:03;;;;;;;3.17;2.00;;;;;;;;;;5086088;28;20790;-69
2022/07/07 01:39:31;;;;;;;4.70;1.37;;;;;;;;;;5076765;28;20457;-69
2022/07/07 01:42:01;;;;;;;2.50;1.67;;;;;;;;;;5083637;28;20491;-69
2022/07/07 01:44:29;;;;;;;2.07;1.33;;;;;;;;;;5081297;28;20456;-69
2022/07/07 01:46:56;;;;;;;2.33;1.47;;;;;;;;;;5086801;28;20457;-69
2022/07/07 01:49:24;;;;;;;3.40;1.50;;;;;;;;;;5091916;28;20461;-69
2022/07/07 01:51:52;;;;;;;2.30;1.60;;;;;;;;;;5076085;28;20475;-69
2022/07/07 01:54:20;;;;;;;1.97;1.30;;;;;;;;;;5088824;28;20448;-69
2022/07/07 01:56:48;;;;;;;2.90;1.67;;;;;;;;;;5087222;28;20695;-69
2022/07/07 01:59:23;;;;;;;2.07;1.20;;;;;;;;;;5080261;28;20462;-69
2022/07/07 02:01:51;;;;;;;3.00;1.60;;;;;;;;;;5075640;28;20549;-69
2022/07/07 02:04:26;;;;;;;2.43;1.70;;;;;;;;;;5091884;28;20540;-69
2022/07/07 02:06:54;;;;;;;2.77;1.40;;;;;;;;;;5075813;28;20499;-69
2022/07/07 02:09:22;;;;;;;3.03;1.47;;;;;;;;;;5075556;28;20448;-70
2022/07/07 02:11:50;;;;;;;2.47;1.43;;;;;;;;;;5084044;28;20476;-69
2022/07/07 02:14:17;;;;;;;2.77;1.50;;;;;;;;;;5092127;28;20448;-69
2022/07/07 02:16:47;;;;;;;2.27;1.53;;;;;;;;;;5081231;28;20471;-69
2022/07/07 02:19:17;;;;;;;2.00;1.20;;;;;;;;;;5095386;28;20482;-69
2022/07/07 02:21:45;;;;;;;3.00;1.60;;;;;;;;;;5080855;28;20483;-69
2022/07/07 02:24:13;;;;;;;1.80;1.10;;;;;;;;;;5085649;28;20455;-69
2022/07/07 02:26:41;;;;;;;2.47;1.37;;;;;;;;;;5081689;28;21085;-69
2022/07/07 02:29:09;;;;;;;2.27;1.50;;;;;;;;;;5084021;28;20484;-69
2022/07/07 02:31:37;;;;;;;2.20;1.30;;;;;;;;;;5096219;28;20463;-69
2022/07/07 02:34:07;;;;;;;2.83;1.60;;;;;;;;;;5087175;28;20494;-69
2022/07/07 02:36:35;;;;;;;2.30;1.70;;;;;;;;;;5076071;28;20456;-69
2022/07/07 02:39:03;;;;;;;2.17;1.33;;;;;;;;;;5083140;28;20463;-68
2022/07/07 02:41:31;;;;;;;3.07;1.90;;;;;;;;;;5083737;28;20485;-68
2022/07/07 02:43:58;;;;;;;3.30;2.00;;;;;;;;;;5082506;28;20486;-69
2022/07/07 02:46:28;;;;;;;2.70;1.90;;;;;;;;;;5075756;28;20467;-68
2022/07/07 02:48:56;;;;;;;2.80;1.97;;;;;;;;;;5083533;28;20456;-69
2022/07/07 02:51:25;;;;;;;2.40;1.80;;;;;;;;;;5092104;28;20463;-68
2022/07/07 02:54:20;;;;;;;;;;;;;;;;;;;;;
2022/07/07 03:00:08;;;;;;;3.83;2.90;;;;;;;;;;5087565;28;20456;-68
2022/07/07 03:02:53;;;;;;;4.00;3.10;;;;;;;;;;5074457;28;20492;-68
2022/07/07 03:05:48;;;;;;;5.37;4.17;;;;;;;;;;5083323;28;20487;-68
2022/07/07 03:08:17;;;;;;;5.20;4.33;;;;;;;;;;5061053;28;20890;-68
2022/07/07 03:10:58;;;;;;;4.87;4.37;;;;;;;;;;5078377;28;20444;-68
2022/07/07 03:13:26;;;;;;;5.80;4.90;;;;;;;;;;5092628;28;20454;-68
2022/07/07 03:16:18;;;;;;;5.73;4.90;;;;;;;;;;5076367;28;20465;-69
2022/07/07 03:19:12;;;;;;;9.27;6.77;;;;;;;;;;5084510;28;20971;-69
2022/07/07 03:24:24;;;;;;;11.27;7.40;;;;;;;;;;5040208;28;20452;-68
2022/07/07 03:29:52;;;;;;;9.57;7.93;;;;;;;;;;5073576;28;20538;-69
2022/07/07 03:35:44;;;;;;;9.00;7.70;;;;;;;;;;5066075;28;20464;-68
2022/07/07 03:38:15;;;;;;;11.30;8.70;;;;;;;;;;5072489;28;20456;-69
2022/07/07 03:43:57;;;;;;;10.70;9.00;;;;;;;;;;5009726;28;20558;-69
2022/07/07 03:46:25;;;;;;;13.07;11.00;;;;;;;;;;5017429;28;20488;-69
2022/07/07 03:48:56;;;;;;;12.63;9.40;;;;;;;;;;5074005;28;20479;-69
2022/07/07 03:51:34;;;;;;;12.83;11.10;;;;;;;;;;5094210;28;20490;-68
2022/07/07 03:54:04;;;;;;;11.93;10.10;;;;;;;;;;5094501;28;20459;-69
2022/07/07 03:56:33;;;;;;;15.70;10.70;;;;;;;;;;5094329;28;20477;-69
2022/07/07 03:59:10;;;;;;;14.50;11.57;;;;;;;;;;5094480;28;20479;-69
2022/07/07 04:01:44;;;;;;;12.23;10.87;;;;;;;;;;5094509;28;20479;-68
2022/07/07 04:04:12;;;;;;;13.57;10.83;;;;;;;;;;5093328;28;20467;-69
2022/07/07 04:06:40;;;;;;;12.60;10.50;;;;;;;;;;5094342;28;20706;-68
2022/07/07 04:09:08;;;;;;;14.40;10.40;;;;;;;;;;5086350;28;20743;-69
2022/07/07 04:11:36;;;;;;;13.70;10.77;;;;;;;;;;5092685;28;20864;-69
2022/07/07 04:14:05;;;;;;;13.77;11.00;;;;;;;;;;5092854;28;20466;-69
2022/07/07 04:16:33;;;;;;;14.07;11.43;;;;;;;;;;5092870;28;20456;-69
2022/07/07 04:19:01;;;;;;;16.37;12.00;;;;;;;;;;5093400;28;20467;-69
2022/07/07 04:21:29;;;;;;;17.97;11.73;;;;;;;;;;5092340;28;20456;-69
2022/07/07 04:23:57;;;;;;;18.20;12.30;;;;;;;;;;5092090;28;20483;-69
2022/07/07 04:26:24;;;;;;;16.03;12.93;;;;;;;;;;5093200;28;20451;-69
2022/07/07 04:28:52;;;;;;;16.10;12.93;;;;;;;;;;5092341;28;20820;-69
2022/07/07 04:31:21;;;;;;;17.10;13.73;;;;;;;;;;5092106;28;20605;-68
2022/07/07 04:33:49;;;;;;;15.73;13.10;;;;;;;;;;5090504;28;20448;-68
2022/07/07 04:36:17;;;;;;;16.80;12.93;;;;;;;;;;5092016;28;20750;-68
2022/07/07 04:38:45;;;;;;;17.63;13.07;;;;;;;;;;5093954;28;20458;-68
2022/07/07 04:41:13;;;;;;;15.33;13.70;;;;;;;;;;5091750;28;20448;-68
2022/07/07 04:43:44;;;;;;;16.00;14.17;;;;;;;;;;5091306;28;20907;-69
2022/07/07 04:46:11;;;;;;;17.73;13.53;;;;;;;;;;5091419;28;20452;-68
2022/07/07 04:48:41;;;;;;;16.90;13.87;;;;;;;;;;5091220;28;20860;-68
2022/07/07 04:51:08;;;;;;;15.90;13.07;;;;;;;;;;5091032;28;20521;-69
2022/07/07 04:53:36;;;;;;;18.30;13.67;;;;;;;;;;5090947;28;20883;-69
2022/07/07 04:56:04;;;;;;;16.03;12.57;;;;;;;;;;5091538;28;20455;-68
2022/07/07 04:58:32;;;;;;;17.93;13.73;;;;;;;;;;5094332;28;20859;-69
2022/07/07 05:01:00;;;;;;;15.90;13.63;;;;;;;;;;5094581;28;20459;-69
2022/07/07 05:03:28;;;;;;;16.90;14.30;;;;;;;;;;5095513;28;20528;-69
2022/07/07 05:05:57;;;;;;;21.40;13.87;;;;;;;;;;5094213;28;20728;-70
2022/07/07 05:08:25;;;;;;;17.40;13.70;;;;;;;;;;5095279;28;20485;-69
2022/07/07 05:10:53;;;;;;;19.13;12.93;;;;;;;;;;5094348;28;20883;-69
2022/07/07 05:13:21;;;;;;;15.03;13.23;;;;;;;;;;5096647;28;20517;-69
2022/07/07 05:15:49;;;;;;;14.10;11.50;;;;;;;;;;5095407;28;20470;-69
2022/07/07 05:18:17;;;;;;;13.80;12.27;;;;;;;;;;5093665;28;20488;-69
2022/07/07 05:20:45;;;;;;;14.23;10.80;;;;;;;;;;5093743;28;20551;-69
2022/07/07 05:23:14;;;;;;;12.30;11.00;;;;;;;;;;5093989;28;20517;-69
2022/07/07 05:25:42;;;;;;;13.20;11.60;;;;;;;;;;5095192;28;20459;-69
2022/07/07 05:28:10;;;;;;;13.63;10.37;;;;;;;;;;5095688;28;20455;-68
2022/07/07 05:30:38;;;;;;;12.67;9.90;;;;;;;;;;5094216;28;20451;-69
2022/07/07 05:33:07;;;;;;;10.73;8.67;;;;;;;;;;5094202;28;20462;-69
2022/07/07 05:35:36;;;;;;;9.70;8.17;;;;;;;;;;5093997;28;20514;-69
2022/07/07 05:38:04;;;;;;;17.57;8.73;;;;;;;;;;5093667;28;20467;-69
2022/07/07 05:40:33;;;;;;;8.50;7.50;;;;;;;;;;5092429;28;21111;-68
2022/07/07 05:43:01;;;;;;;11.37;8.33;;;;;;;;;;5092974;28;20491;-68
2022/07/07 05:45:29;;;;;;;14.83;12.57;;;;;;;;;;5092981;28;20460;-68
2022/07/07 05:47:57;;;;;;;12.07;7.83;;;;;;;;;;5096141;28;20456;-69
2022/07/07 05:50:25;;;;;;;8.90;7.80;;;;;;;;;;5092593;28;20524;-70
2022/07/07 05:52:53;;;;;;;9.17;6.63;;;;;;;;;;5092545;28;20879;-67
2022/07/07 05:55:23;;;;;;;9.03;7.37;;;;;;;;;;5082127;28;20457;-70
2022/07/07 05:57:56;;;;;;;9.73;7.00;;;;;;;;;;5075624;28;20464;-70
2022/07/07 06:00:24;;;;;;;8.60;7.20;;;;;;;;;;5078210;28;20859;-69
2022/07/07 06:02:52;;;;;;;6.83;6.13;;;;;;;;;;5083166;28;20484;-69
2022/07/07 06:05:20;;;;;;;6.63;5.37;;;;;;;;;;5074354;28;20911;-70
2022/07/07 06:07:48;;;;;;;10.00;6.53;;;;;;;;;;5088701;28;20923;-69
2022/07/07 06:10:16;;;;;;;8.30;5.10;;;;;;;;;;5084220;28;20473;-69
2022/07/07 06:12:44;;;;;;;6.53;4.60;;;;;;;;;;5087666;28;20569;-70
2022/07/07 06:15:14;;;;;;;8.03;5.20;;;;;;;;;;5093060;28;20566;-70
2022/07/07 06:17:42;;;;;;;6.47;5.77;;;;;;;;;;5090355;28;20455;-70
2022/07/07 06:20:11;;;;;;;6.23;5.53;;;;;;;;;;5093029;28;20455;-69
2022/07/07 06:22:40;;;;;;;4.80;4.23;;;;;;;;;;5094501;28;20479;-69
2022/07/07 06:25:09;;;;;;;5.47;4.40;;;;;;;;;;5091805;28;20571;-69
2022/07/07 06:27:43;;;;;;;6.67;4.23;;;;;;;;;;5092786;28;20460;-68
2022/07/07 06:30:12;;;;;;;7.10;3.87;;;;;;;;;;5092060;28;20915;-69
2022/07/07 06:32:41;;;;;;;4.00;3.07;;;;;;;;;;5093057;28;20732;-70
2022/07/07 06:35:10;;;;;;;5.23;3.30;;;;;;;;;;5090011;28;20460;-67
2022/07/07 06:37:37;;;;;;;3.33;2.90;;;;;;;;;;5092359;28;20452;-70
2022/07/07 06:40:06;;;;;;;3.43;2.97;;;;;;;;;;5093206;28;20945;-70
2022/07/07 06:42:33;;;;;;;3.00;2.30;;;;;;;;;;5094647;28;20550;-70
2022/07/07 06:45:01;;;;;;;3.03;2.20;;;;;;;;;;5091735;28;20547;-69
2022/07/07 06:47:29;;;;;;;3.23;1.97;;;;;;;;;;5074718;28;20526;-69
2022/07/07 06:49:59;;;;;;;3.20;1.93;;;;;;;;;;5072773;28;20469;-70
2022/07/07 06:52:26;;;;;;;5.23;2.20;;;;;;;;;;5074194;28;20456;-69
2022/07/07 06:54:54;;;;;;;2.50;1.93;;;;;;;;;;5082478;28;20718;-69
2022/07/07 06:57:22;;;;;;;3.20;1.97;;;;;;;;;;5086626;28;20888;-69
2022/07/07 06:59:50;;;;;;;2.97;1.97;;;;;;;;;;5073514;28;20472;-69
2022/07/07 07:02:18;;;;;;;3.30;1.90;;;;;;;;;;5072981;28;20765;-69
2022/07/07 07:04:47;;;;;;;4.27;2.40;;;;;;;;;;5073098;28;20498;-71
2022/07/07 07:07:16;;;;;;;3.37;2.10;;;;;;;;;;5073865;28;20588;-69
2022/07/07 07:09:44;;;;;;;2.20;1.50;;;;;;;;;;5073596;28;20457;-70
2022/07/07 07:12:12;;;;;;;2.77;1.90;;;;;;;;;;5075984;28;20457;-69
2022/07/07 07:15:04;;;;;;;4.10;2.07;;;;;;;;;;5075649;28;20461;-69
2022/07/07 07:17:32;;;;;;;3.10;1.30;;;;;;;;;;5061050;28;20453;-70
2022/07/07 07:20:00;;;;;;;2.00;1.50;;;;;;;;;;5074955;28;21009;-70
2022/07/07 07:22:30;;;;;;;3.00;1.80;;;;;;;;;;5073478;28;20513;-70
2022/07/07 07:24:57;;;;;;;2.30;1.73;;;;;;;;;;5073529;28;20460;-70
2022/07/07 07:27:27;;;;;;;2.03;1.43;;;;;;;;;;5080366;28;20468;-70
2022/07/07 07:29:55;;;;;;;2.30;1.60;;;;;;;;;;5076352;28;20448;-69
2022/07/07 07:32:23;;;;;;;3.10;1.47;;;;;;;;;;5072584;28;20472;-68
2022/07/07 07:34:51;;;;;;;3.03;1.90;;;;;;;;;;5091695;27;20755;-70
2022/07/07 07:37:19;;;;;;;2.53;1.50;;;;;;;;;;5113205;27;20450;-69
2022/07/07 07:39:51;;;;;;;2.40;1.80;;;;;;;;;;5110444;27;20527;-70
2022/07/07 07:42:19;;;;;;;3.33;2.83;;;;;;;;;;5110697;27;20455;-70
2022/07/07 07:47:47;;;;;;;3.60;1.60;;;;;;;;;;5092576;28;20447;-69
2022/07/07 07:50:17;;;;;;;3.63;1.57;;;;;;;;;;5093637;28;20447;-69
2022/07/07 07:52:48;;;;;;;2.43;1.90;;;;;;;;;;5089228;28;20930;-69
2022/07/07 07:55:21;;;;;;;2.53;1.00;;;;;;;;;;5092390;28;20474;-69
2022/07/07 07:58:04;;;;;;;2.00;1.10;;;;;;;;;;5093703;28;21005;-69
2022/07/07 08:03:36;;;;;;;1.60;0.97;;;;;;;;;;5068563;28;20477;-69
2022/07/07 08:06:10;;;;;;;1.90;1.07;;;;;;;;;;5073953;28;20550;-69
2022/07/07 08:08:43;;;;;;;2.63;1.37;;;;;;;;;;5072874;28;20473;-70
2022/07/07 08:11:14;;;;;;;4.33;1.30;;;;;;;;;;5072667;28;20947;-70
2022/07/07 08:13:45;;;;;;;8.40;1.73;;;;;;;;;;5070723;28;20766;-69
2022/07/07 08:16:16;;;;;;;2.70;1.70;;;;;;;;;;5075170;28;20468;-69
2022/07/07 08:18:48;;;;;;;2.73;1.87;;;;;;;;;;5091989;28;20463;-68
2022/07/07 08:21:18;;;;;;;4.40;2.60;;;;;;;;;;5090790;28;20463;-68
2022/07/07 08:23:47;;;;;;;2.67;1.80;;;;;;;;;;5091024;28;20583;-69
2022/07/07 08:26:27;;;;;;;2.37;1.80;;;;;;;;;;5092346;28;20792;-69
2022/07/07 08:28:57;;;;;;;3.07;1.70;;;;;;;;;;5072236;28;20452;-68
2022/07/07 08:34:09;;;;;;;2.60;1.83;;;;;;;;;;5074965;28;20472;-69
2022/07/07 08:36:57;;;;;;;2.43;1.50;;;;;;;;;;5073460;28;20499;-69
2022/07/07 08:39:25;;;;;;;6.10;3.50;;;;;;;;;;5073577;28;20949;-68
2022/07/07 08:42:03;;;;;;;4.50;1.60;;;;;;;;;;5074552;28;20461;-68
2022/07/07 08:44:38;;;;;;;8.80;2.30;;;;;;;;;;5074089;28;20794;-69
2022/07/07 08:47:11;;;;;;;3.90;2.20;;;;;;;;;;5074621;28;20477;-69
2022/07/07 08:49:47;;;;;;;4.70;1.83;;;;;;;;;;5073644;28;20461;-68
2022/07/07 08:52:19;;;;;;;7.13;2.10;;;;;;;;;;5076853;28;20981;-71
2022/07/07 08:54:53;;;;;;;8.13;1.80;;;;;;;;;;5074335;28;20896;-69
2022/07/07 08:57:30;;;;;;;3.43;1.53;;;;;;;;;;5072327;28;20512;-70
2022/07/07 09:00:10;;;;;;;3.20;1.43;;;;;;;;;;5074465;28;20845;-69
2022/07/07 09:02:47;;;;;;;3.47;1.80;;;;;;;;;;5081946;28;20500;-69
2022/07/07 09:05:20;;;;;;;2.90;1.50;;;;;;;;;;5091925;28;20498;-69
2022/07/07 09:07:49;;;;;;;3.47;1.40;;;;;;;;;;5095324;28;20479;-69
2022/07/07 09:10:31;;;;;;;4.43;1.30;;;;;;;;;;5092867;28;20570;-69
2022/07/07 09:13:00;;;;;;;3.60;2.07;;;;;;;;;;5094823;28;21192;-69
2022/07/07 09:15:29;;;;;;;3.40;1.33;;;;;;;;;;5093082;28;20755;-69
2022/07/07 09:17:56;;;;;;;5.27;1.70;;;;;;;;;;5093705;28;20447;-69
2022/07/07 09:20:25;;;;;;;1.90;1.23;;;;;;;;;;5087242;28;20595;-69
2022/07/07 09:22:58;;;;;;;2.67;1.60;;;;;;;;;;5079638;28;20500;-69
2022/07/07 09:25:26;;;;;;;3.00;2.00;;;;;;;;;;5072265;28;20488;-69
2022/07/07 09:28:00;;;;;;;4.10;1.70;;;;;;;;;;5074841;28;20452;-70
2022/07/07 09:30:31;;;;;;;2.90;1.57;;;;;;;;;;5073101;28;20460;-68
2022/07/07 09:33:01;;;;;;;6.30;2.30;;;;;;;;;;5078298;28;20570;-70
2022/07/07 09:38:22;;;;;;;5.43;1.70;;;;;;;;;;5094709;28;20493;-68
2022/07/07 09:40:59;;;;;;;3.27;1.70;;;;;;;;;;5090815;28;20495;-69
2022/07/07 09:43:27;;;;;;;4.80;2.17;;;;;;;;;;5089818;28;20492;-70
2022/07/07 09:46:08;;;;;;;3.90;2.23;;;;;;;;;;5086757;28;20474;-68
2022/07/07 09:48:36;;;;;;;4.17;2.67;;;;;;;;;;5089703;28;20970;-68
2022/07/07 09:51:29;;;;;;;5.17;2.30;;;;;;;;;;5093469;28;20602;-69
2022/07/07 09:54:04;;;;;;;5.00;2.40;;;;;;;;;;5092927;28;20451;-69
2022/07/07 09:56:33;;;;;;;4.87;2.60;;;;;;;;;;5087165;28;20468;-68
2022/07/07 09:59:02;;;;;;;6.37;2.60;;;;;;;;;;5091321;28;20466;-69
2022/07/07 10:01:34;;;;;;;3.57;2.50;;;;;;;;;;5093971;28;20471;-69
2022/07/07 10:04:10;;;;;;;4.47;2.50;;;;;;;;;;5080852;28;20495;-69
2022/07/07 10:06:50;;;;;;;2.90;1.97;;;;;;;;;;5074053;28;20456;-68
2022/07/07 10:09:21;;;;;;;3.30;2.10;;;;;;;;;;5073765;28;20463;-68
2022/07/07 10:11:51;;;;;;;4.37;2.00;;;;;;;;;;5092317;28;20773;-69
2022/07/07 10:14:20;;;;;;;4.20;2.03;;;;;;;;;;5091810;28;20475;-70
2022/07/07 10:16:50;;;;;;;9.00;2.90;;;;;;;;;;5091663;28;20683;-70
2022/07/07 10:19:20;;;;;;;4.73;2.00;;;;;;;;;;5082872;28;20796;-69
2022/07/07 10:21:49;;;;;;;4.83;2.90;;;;;;;;;;5073228;28;20935;-68
2022/07/07 10:24:21;;;;;;;4.33;1.90;;;;;;;;;;5072018;28;20550;-68
2022/07/07 10:26:53;;;;;;;6.03;1.70;;;;;;;;;;5068965;28;20634;-68
2022/07/07 10:29:36;;;;;;;7.30;1.70;;;;;;;;;;5076273;28;20529;-68
2022/07/07 10:32:06;;;;;;;6.17;2.40;;;;;;;;;;5072291;28;20867;-69
2022/07/07 10:34:34;;;;;;;11.43;2.17;;;;;;;;;;5082863;28;20548;-70
2022/07/07 10:37:03;;;;;;;2.87;1.83;;;;;;;;;;5091484;28;20542;-68
2022/07/07 10:39:36;;;;;;;3.20;1.53;;;;;;;;;;5072347;28;20475;-69
2022/07/07 10:42:08;;;;;;;3.73;1.23;;;;;;;;;;5072229;28;20907;-67
2022/07/07 10:44:37;;;;;;;3.90;1.50;;;;;;;;;;5085158;28;20482;-70
2022/07/07 10:47:29;;;;;;;6.30;1.70;;;;;;;;;;5088981;28;20460;-68
2022/07/07 10:49:58;;;;;;;6.23;3.40;;;;;;;;;;5076471;28;20524;-68
2022/07/07 10:52:27;;;;;;;3.40;1.70;;;;;;;;;;5090260;28;20485;-69
2022/07/07 10:54:57;;;;;;;6.70;2.73;;;;;;;;;;5087676;28;20474;-70
2022/07/07 10:57:28;;;;;;;3.30;1.73;;;;;;;;;;5088089;27;20483;-70
2022/07/07 11:00:08;;;;;;;8.37;1.50;;;;;;;;;;5088841;28;20479;-69
2022/07/07 11:02:39;;;;;;;6.80;1.47;;;;;;;;;;5070851;28;20460;-69
2022/07/07 11:05:23;;;;;;;5.87;1.53;;;;;;;;;;5070204;28;20499;-68
2022/07/07 11:08:07;;;;;;;5.10;1.13;;;;;;;;;;5059554;28;20563;-69
2022/07/07 11:10:59;;;;;;;2.80;1.13;;;;;;;;;;5090152;28;20595;-68
2022/07/07 11:13:36;;;;;;;7.30;2.00;;;;;;;;;;5062873;28;20453;-68
2022/07/07 11:16:17;;;;;;;5.37;1.60;;;;;;;;;;5081830;28;20458;-68
2022/07/07 11:18:48;;;;;;;4.53;1.97;;;;;;;;;;5090354;28;20439;-69
2022/07/07 11:21:16;;;;;;;4.50;2.07;;;;;;;;;;5089439;28;20456;-69
2022/07/07 11:24:07;;;;;;;6.90;1.73;;;;;;;;;;5072479;28;20456;-70
2022/07/07 11:26:43;;;;;;;10.10;2.10;;;;;;;;;;5086096;28;21142;-69
2022/07/07 11:29:17;;;;;;;5.40;1.37;;;;;;;;;;5085114;28;20571;-69
2022/07/07 11:31:48;;;;;;;5.77;1.40;;;;;;;;;;5090578;28;20546;-68
2022/07/07 11:34:16;;;;;;;6.43;1.83;;;;;;;;;;5089786;28;20495;-69
2022/07/07 11:36:49;;;;;;;5.93;1.63;;;;;;;;;;5081527;28;20503;-68
2022/07/07 11:39:21;;;;;;;6.03;1.70;;;;;;;;;;5101763;28;20447;-68
2022/07/07 11:41:52;;;;;;;6.90;1.83;;;;;;;;;;5110591;27;20461;-68
2022/07/07 11:44:22;;;;;;;6.30;2.60;;;;;;;;;;5081366;28;21003;-69
2022/07/07 11:46:52;;;;;;;5.03;2.03;;;;;;;;;;5089659;28;20467;-69
2022/07/07 11:49:30;;;;;;;4.13;1.50;;;;;;;;;;5086744;28;20467;-69
2022/07/07 11:52:01;;;;;;;3.20;1.50;;;;;;;;;;5089055;28;20457;-68
2022/07/07 11:54:29;;;;;;;5.93;1.47;;;;;;;;;;5081535;28;20461;-68
2022/07/07 11:57:03;;;;;;;2.97;1.20;;;;;;;;;;5103120;27;20452;-69
2022/07/07 11:59:36;;;;;;;3.50;1.57;;;;;;;;;;5070043;28;21143;-68
2022/07/07 12:02:19;;;;;;;2.90;1.10;;;;;;;;;;5092279;28;20490;-70
2022/07/07 12:04:47;;;;;;;3.97;1.60;;;;;;;;;;5106200;27;20556;-69
2022/07/07 12:07:15;;;;;;;4.80;2.00;;;;;;;;;;5113603;27;21015;-70
2022/07/07 12:09:47;;;;;;;4.13;1.47;;;;;;;;;;5115267;27;20465;-69
2022/07/07 12:12:18;;;;;;;5.03;1.37;;;;;;;;;;5108335;28;20474;-68
2022/07/07 12:14:50;;;;;;;2.67;1.10;;;;;;;;;;5094436;27;20559;-69
2022/07/07 12:17:33;;;;;;;4.43;1.57;;;;;;;;;;5073850;28;20793;-68
2022/07/07 12:20:01;;;;;;;4.37;2.07;;;;;;;;;;5082291;28;20475;-68
2022/07/07 12:22:36;;;;;;;5.13;1.50;;;;;;;;;;5084907;28;20464;-69
2022/07/07 12:25:05;;;;;;;4.47;1.10;;;;;;;;;;5083089;28;20577;-69
2022/07/07 12:27:51;;;;;;;3.20;1.40;;;;;;;;;;5076172;28;21157;-69
2022/07/07 12:30:34;;;;;;;5.23;2.50;;;;;;;;;;5100864;28;20474;-69
2022/07/07 12:33:06;;;;;;;5.80;1.20;;;;;;;;;;5114215;27;20452;-69
2022/07/07 12:35:35;;;;;;;3.33;1.50;;;;;;;;;;5094257;27;20881;-69
2022/07/07 12:38:08;;;;;;;5.33;1.40;;;;;;;;;;5073509;28;20452;-69
2022/07/07 12:40:37;;;;;;;4.80;1.27;;;;;;;;;;5087406;28;20451;-69
2022/07/07 12:43:09;;;;;;;3.40;1.13;;;;;;;;;;5092274;28;20447;-69
2022/07/07 12:45:42;;;;;;;5.10;1.77;;;;;;;;;;5091234;28;20915;-69
2022/07/07 12:48:17;;;;;;;3.00;1.17;;;;;;;;;;5083334;28;20449;-69
2022/07/07 12:50:45;;;;;;;3.60;1.20;;;;;;;;;;5085868;28;20891;-69
2022/07/07 12:53:16;;;;;;;9.63;3.80;;;;;;;;;;5093924;28;20459;-68
2022/07/07 12:55:45;;;;;;;7.33;1.60;;;;;;;;;;5078534;27;20482;-69
2022/07/07 12:58:23;;;;;;;3.17;1.20;;;;;;;;;;5082873;28;20887;-69
2022/07/07 13:01:00;;;;;;;2.23;0.87;;;;;;;;;;5088913;28;20464;-68
2022/07/07 13:03:31;;;;;;;2.90;0.93;;;;;;;;;;5087465;28;20470;-70
2022/07/07 13:05:59;;;;;;;5.43;1.70;;;;;;;;;;5080794;28;20517;-68
2022/07/07 13:08:43;;;;;;;4.30;1.20;;;;;;;;;;5095167;28;20475;-68
2022/07/07 13:11:12;;;;;;;3.13;1.17;;;;;;;;;;5092926;28;20687;-69
2022/07/07 13:13:43;;;;;;;5.07;1.90;;;;;;;;;;5083703;28;20452;-68
2022/07/07 13:16:12;;;;;;;2.20;1.57;;;;;;;;;;5093825;28;20471;-68
2022/07/07 13:18:45;;;;;;;2.57;1.57;;;;;;;;;;5082952;28;20997;-69
2022/07/07 13:21:15;;;;;;;3.70;1.67;;;;;;;;;;5083922;28;20460;-70
2022/07/07 13:23:43;;;;;;;3.10;1.97;;;;;;;;;;5089597;28;20499;-69
2022/07/07 13:26:12;;;;;;;3.20;2.13;;;;;;;;;;5093682;28;20488;-69
2022/07/07 13:28:43;;;;;;;3.60;1.77;;;;;;;;;;5090471;28;21125;-69
2022/07/07 13:31:17;;;;;;;6.23;2.30;;;;;;;;;;5095065;27;20498;-69
2022/07/07 13:33:51;;;;;;;6.30;2.30;;;;;;;;;;5093933;28;20525;-69
2022/07/07 13:36:19;;;;;;;4.87;2.20;;;;;;;;;;5092079;28;20514;-68
2022/07/07 13:38:47;;;;;;;9.50;2.13;;;;;;;;;;5096924;28;20454;-67
2022/07/07 13:41:15;;;;;;;7.10;2.30;;;;;;;;;;5096116;28;20463;-68
2022/07/07 13:43:46;;;;;;;4.37;1.80;;;;;;;;;;5072930;28;20456;-68
2022/07/07 13:46:16;;;;;;;7.57;2.37;;;;;;;;;;5072872;28;20492;-68
2022/07/07 13:48:44;;;;;;;6.70;2.17;;;;;;;;;;5091494;28;20447;-69
2022/07/07 13:51:12;;;;;;;10.83;2.17;;;;;;;;;;5092426;28;20459;-68
2022/07/07 13:53:41;;;;;;;7.23;2.20;;;;;;;;;;5092257;28;20517;-68
2022/07/07 13:56:09;;;;;;;11.13;3.00;;;;;;;;;;5092338;28;20463;-69
2022/07/07 13:58:36;;;;;;;4.60;1.60;;;;;;;;;;5092599;28;20758;-68
2022/07/07 14:01:04;;;;;;;11.70;2.30;;;;;;;;;;5077114;28;20466;-69
2022/07/07 14:03:40;;;;;;;12.17;2.27;;;;;;;;;;5086705;28;20456;-68
2022/07/07 14:06:08;;;;;;;7.80;2.33;;;;;;;;;;5092798;27;20898;-69
2022/07/07 14:08:36;;;;;;;7.03;1.70;;;;;;;;;;5083022;28;20940;-69
2022/07/07 14:11:06;;;;;;;12.70;2.60;;;;;;;;;;5093021;28;20482;-68
2022/07/07 14:13:34;;;;;;;6.00;1.50;;;;;;;;;;5095429;28;20516;-69
2022/07/07 14:16:02;;;;;;;9.93;2.57;;;;;;;;;;5091669;28;20554;-69
2022/07/07 14:18:30;;;;;;;7.20;2.03;;;;;;;;;;5091480;28;20463;-69
2022/07/07 14:21:00;;;;;;;13.07;2.83;;;;;;;;;;5092442;28;20459;-69
2022/07/07 14:23:29;;;;;;;9.83;2.30;;;;;;;;;;5091142;28;20529;-69
2022/07/07 14:25:57;;;;;;;10.13;2.03;;;;;;;;;;5091609;28;20519;-69
2022/07/07 14:28:27;;;;;;;10.63;3.20;;;;;;;;;;5090277;27;20455;-69
2022/07/07 14:30:57;;;;;;;7.73;2.60;;;;;;;;;;5072234;28;20463;-69
2022/07/07 14:33:28;;;;;;;7.70;1.80;;;;;;;;;;5080037;28;20463;-68
2022/07/07 14:35:57;;;;;;;10.90;2.37;;;;;;;;;;5089224;28;20482;-69
2022/07/07 14:38:27;;;;;;;12.10;2.30;;;;;;;;;;5072387;28;20531;-68
2022/07/07 14:40:57;;;;;;;11.63;2.30;;;;;;;;;;5073373;27;20559;-70
2022/07/07 14:43:29;;;;;;;7.90;2.13;;;;;;;;;;5094392;28;20714;-70
2022/07/07 14:46:03;;;;;;;11.70;2.50;;;;;;;;;;5095025;28;20929;-70
2022/07/07 14:48:32;;;;;;;8.53;1.83;;;;;;;;;;5095859;28;20716;-69
2022/07/07 14:51:00;;;;;;;11.67;2.17;;;;;;;;;;5093152;28;20462;-69
2022/07/07 14:53:31;;;;;;;12.80;3.17;;;;;;;;;;5086442;28;20482;-70
2022/07/07 14:56:04;;;;;;;11.87;1.87;;;;;;;;;;5088806;28;20740;-69
2022/07/07 14:58:32;;;;;;;14.67;3.50;;;;;;;;;;5083360;28;20525;-69
2022/07/07 15:01:06;;;;;;;5.50;1.70;;;;;;;;;;5082647;28;20549;-69
2022/07/07 15:03:36;;;;;;;7.30;2.00;;;;;;;;;;5082606;28;20843;-70
2022/07/07 15:06:05;;;;;;;4.73;1.83;;;;;;;;;;5075485;28;20495;-71
2022/07/07 15:08:35;;;;;;;5.10;1.73;;;;;;;;;;5076823;28;20460;-69
2022/07/07 15:11:10;;;;;;;7.93;1.80;;;;;;;;;;5088401;28;21147;-69
2022/07/07 15:13:38;;;;;;;8.37;2.57;;;;;;;;;;5092781;28;20451;-69
2022/07/07 15:16:43;;;;;;;11.40;2.93;;;;;;;;;;5097454;27;20466;-70
2022/07/07 15:19:12;;;;;;;10.03;1.70;;;;;;;;;;5083287;28;20566;-70
2022/07/07 15:22:11;;;;;;;8.23;2.20;;;;;;;;;;5088624;28;20461;-70
2022/07/07 15:24:41;;;;;;;6.20;1.53;;;;;;;;;;5088466;27;20470;-69
2022/07/07 15:27:08;;;;;;;5.93;1.80;;;;;;;;;;5099486;28;20566;-69
2022/07/07 15:29:36;;;;;;;5.53;1.80;;;;;;;;;;5087898;28;20544;-69